createdAt,value
2022-12-15T00:04:09.185Z,-7.71
2022-12-15T00:09:31.177Z,-7.77
2022-12-15T00:14:53.362Z,-7.95
2022-12-15T00:20:15.083Z,-8.08
2022-12-15T00:25:36.929Z,-8.12
2022-12-15T00:31:02.227Z,-8.08
2022-12-15T00:36:24.741Z,-8.00
2022-12-15T00:41:27.523Z,-7.91
2022-12-15T00:46:48.851Z,-7.84
2022-12-15T00:52:10.605Z,-7.90
2022-12-15T00:57:32.099Z,-8.08
2022-12-15T01:02:53.459Z,-8.26
2022-12-15T01:08:18.692Z,-8.43
2022-12-15T01:13:40.146Z,-8.50
2022-12-15T01:19:01.483Z,-8.43
2022-12-15T01:24:04.796Z,-8.24
2022-12-15T01:29:08.117Z,-8.00
2022-12-15T01:34:10.912Z,-7.78
2022-12-15T01:39:13.687Z,-7.59
2022-12-15T01:44:25.401Z,-7.51
2022-12-15T01:49:30.739Z,-7.44
2022-12-15T01:54:49.654Z,-7.46
2022-12-15T02:00:02.056Z,-7.46
2022-12-15T02:05:06.309Z,-7.44
2022-12-15T02:10:10.664Z,-7.39
2022-12-15T02:15:37.732Z,-7.27
2022-12-15T02:21:01.629Z,-7.12
2022-12-15T02:26:25.416Z,-7.07
2022-12-15T02:31:51.458Z,-7.09
2022-12-15T02:37:17.081Z,-7.12
2022-12-15T02:42:20.415Z,-7.10
2022-12-15T02:47:47.169Z,-7.12
2022-12-15T02:53:32.407Z,-7.09
2022-12-15T02:58:56.654Z,-7.02
2022-12-15T03:04:03.770Z,-6.87
2022-12-15T03:09:06.693Z,-6.68
2022-12-15T03:14:09.377Z,-6.54
2022-12-15T03:19:12.085Z,-6.52
2022-12-15T03:24:14.759Z,-6.56
2022-12-15T03:29:18.318Z,-6.59
2022-12-15T03:34:21.300Z,-6.63
2022-12-15T03:39:24.010Z,-6.63
2022-12-15T03:44:26.717Z,-6.56
2022-12-15T03:49:29.510Z,-6.47
2022-12-15T03:54:32.313Z,-6.28
2022-12-15T03:59:35.304Z,-6.12
2022-12-15T04:04:38.100Z,-5.97
2022-12-15T04:09:41.435Z,-5.96
2022-12-15T04:14:44.165Z,-5.99
2022-12-15T04:20:05.466Z,-6.08
2022-12-15T04:25:30.458Z,-6.21
2022-12-15T04:30:52.062Z,-6.28
2022-12-15T04:36:13.562Z,-6.22
2022-12-15T04:41:38.171Z,-6.05
2022-12-15T04:46:59.372Z,-5.85
2022-12-15T04:52:21.062Z,-5.67
2022-12-15T04:57:42.261Z,-5.61
2022-12-15T05:03:03.738Z,-5.62
2022-12-15T05:08:25.276Z,-5.68
2022-12-15T05:13:46.714Z,-5.73
2022-12-15T05:19:08.356Z,-5.83
2022-12-15T05:24:29.490Z,-5.91
2022-12-15T05:29:50.833Z,-5.91
2022-12-15T05:34:53.512Z,-5.82
2022-12-15T05:39:56.206Z,-5.67
2022-12-15T05:44:58.934Z,-5.49
2022-12-15T05:50:01.720Z,-5.43
2022-12-15T05:55:05.994Z,-5.45
2022-12-15T06:00:09.613Z,-5.56
2022-12-15T06:05:12.556Z,-5.66
2022-12-15T06:10:15.468Z,-5.71
2022-12-15T06:15:18.185Z,-5.78
2022-12-15T06:20:20.881Z,-5.83
2022-12-15T06:25:23.639Z,-5.77
2022-12-15T06:30:26.357Z,-5.66
2022-12-15T06:35:29.489Z,-5.50
2022-12-15T06:40:37.657Z,-5.29
2022-12-15T06:45:49.721Z,-5.18
2022-12-15T06:50:53.508Z,-5.15
2022-12-15T06:56:01.827Z,-5.17
2022-12-15T07:01:08.098Z,-5.28
2022-12-15T07:06:13.554Z,-5.35
2022-12-15T07:11:16.553Z,-5.38
2022-12-15T07:16:21.764Z,-5.35
2022-12-15T07:21:25.812Z,-5.28
2022-12-15T07:26:35.763Z,-5.25
2022-12-15T07:31:38.834Z,-5.22
2022-12-15T07:36:44.607Z,-5.23
2022-12-15T07:41:51.615Z,-5.28
2022-12-15T07:46:57.783Z,-5.28
2022-12-15T07:52:01.914Z,-5.23
2022-12-15T07:57:07.629Z,-5.17
2022-12-15T08:02:11.906Z,-5.05
2022-12-15T08:07:15.355Z,-5.05
2022-12-15T08:12:18.056Z,-4.99
2022-12-15T08:17:21.281Z,-4.87
2022-12-15T08:22:24.886Z,-4.85
2022-12-15T08:27:30.202Z,-4.88
2022-12-15T08:32:33.055Z,-4.93
2022-12-15T08:37:35.986Z,-4.93
2022-12-15T08:42:38.908Z,-4.96
2022-12-15T08:47:42.348Z,-4.92
2022-12-15T08:53:13.829Z,-4.89
2022-12-15T08:58:13.001Z,-4.78
2022-12-15T09:03:16.018Z,-4.68
2022-12-15T09:08:19.125Z,-4.58
2022-12-15T09:13:22.225Z,-4.41
2022-12-15T09:18:25.506Z,-4.34
2022-12-15T09:23:29.831Z,-4.21
2022-12-15T09:28:33.225Z,-4.11
2022-12-15T09:33:38.444Z,-4.02
2022-12-15T09:38:54.887Z,-3.99
2022-12-15T09:44:16.668Z,-3.97
2022-12-15T09:49:28.802Z,-4.00
2022-12-15T09:54:33.698Z,-3.91
2022-12-15T09:59:39.201Z,-3.77
2022-12-15T10:04:47.965Z,-3.67
2022-12-15T10:09:53.784Z,-3.60
2022-12-15T10:15:39.645Z,-3.61
2022-12-15T10:20:57.173Z,-3.59
2022-12-15T10:26:14.646Z,-3.56
2022-12-15T10:31:29.863Z,-3.62
2022-12-15T10:36:32.780Z,-3.63
2022-12-15T10:41:35.595Z,-3.57
2022-12-15T10:46:38.376Z,-3.49
2022-12-15T10:51:52.172Z,-3.47
2022-12-15T10:56:57.914Z,-3.58
2022-12-15T11:02:26.436Z,-3.61
2022-12-15T11:07:36.015Z,-3.70
2022-12-15T11:12:52.055Z,-3.81
2022-12-15T11:18:06.884Z,-3.93
2022-12-15T11:23:25.798Z,-4.04
2022-12-15T11:28:39.610Z,-4.14
2022-12-15T11:33:42.374Z,-4.16
2022-12-15T11:39:00.315Z,-4.20
2022-12-15T11:44:18.330Z,-4.15
2022-12-15T11:49:40.945Z,-4.03
2022-12-15T11:54:53.106Z,-4.00
2022-12-15T12:00:06.760Z,-3.95
2022-12-15T12:05:21.751Z,-3.84
2022-12-15T12:10:44.406Z,-3.83
2022-12-15T12:16:14.378Z,-3.83
2022-12-15T12:21:24.605Z,-3.81
2022-12-15T12:27:06.312Z,-3.84
2022-12-15T12:32:29.965Z,-3.92
2022-12-15T12:37:43.504Z,-4.06
2022-12-15T12:42:57.999Z,-4.14
2022-12-15T12:48:09.512Z,-4.27
2022-12-15T12:53:34.697Z,-4.32
2022-12-15T12:58:39.800Z,-4.26
2022-12-15T13:03:43.571Z,-4.23
2022-12-15T13:08:55.818Z,-4.36
2022-12-15T13:13:58.681Z,-4.47
2022-12-15T13:19:08.238Z,-4.58
2022-12-15T13:24:51.335Z,-4.64
2022-12-15T13:30:03.783Z,-4.63
2022-12-15T13:35:12.879Z,-4.59
2022-12-15T13:40:54.917Z,-4.68
2022-12-15T13:46:11.692Z,-4.88
2022-12-15T13:51:34.957Z,-5.00
2022-12-15T13:56:54.713Z,-5.13
2022-12-15T14:01:59.694Z,-5.23
2022-12-15T14:07:03.215Z,-5.26
2022-12-15T14:12:12.129Z,-5.20
2022-12-15T14:17:17.987Z,-5.20
2022-12-15T14:22:28.963Z,-5.19
2022-12-15T14:27:33.976Z,-5.23
2022-12-15T14:32:37.281Z,-5.39
2022-12-15T14:37:40.795Z,-5.53
2022-12-15T14:42:45.073Z,-5.66
2022-12-15T14:48:39.076Z,-5.75
2022-12-15T14:53:23.666Z,-5.74
2022-12-15T14:58:36.077Z,-5.76
2022-12-15T15:03:41.269Z,-5.81
2022-12-15T15:08:52.730Z,-5.82
2022-12-15T15:14:05.052Z,-5.82
2022-12-15T15:19:08.080Z,-5.85
2022-12-15T15:24:10.913Z,-5.85
2022-12-15T15:29:34.256Z,-5.88
2022-12-15T15:34:37.005Z,-5.93
2022-12-15T15:39:40.133Z,-5.90
2022-12-15T15:44:43.105Z,-5.90
2022-12-15T15:49:46.820Z,-5.95
2022-12-15T15:54:50.637Z,-5.90
2022-12-15T15:59:53.977Z,-5.87
2022-12-15T16:04:56.879Z,-5.86
2022-12-15T16:09:59.884Z,-5.83
2022-12-15T16:15:02.769Z,-5.81
2022-12-15T16:20:06.679Z,-5.79
2022-12-15T16:25:17.207Z,-5.81
2022-12-15T16:30:24.205Z,-5.82
2022-12-15T16:35:26.997Z,-5.86
2022-12-15T16:40:30.016Z,-5.86
2022-12-15T16:45:32.719Z,-5.87
2022-12-15T16:50:38.135Z,-5.89
2022-12-15T16:55:41.847Z,-5.88
2022-12-15T17:00:45.552Z,-5.85
2022-12-15T17:05:50.339Z,-5.80
2022-12-15T17:10:53.880Z,-5.75
2022-12-15T17:15:56.844Z,-5.74
2022-12-15T17:21:17.299Z,-5.73
2022-12-15T17:26:29.135Z,-5.64
2022-12-15T17:31:35.662Z,-5.57
2022-12-15T17:36:39.116Z,-5.49
2022-12-15T17:41:59.463Z,-5.43
2022-12-15T17:47:05.685Z,-5.38
2022-12-15T17:52:22.849Z,-5.35
2022-12-15T17:57:25.861Z,-5.30
2022-12-15T18:02:29.072Z,-5.25
2022-12-15T18:07:32.174Z,-5.16
2022-12-15T18:12:36.306Z,-5.11
2022-12-15T18:17:38.989Z,-5.10
2022-12-15T18:22:42.019Z,-5.08
2022-12-15T18:27:45.124Z,-5.09
2022-12-15T18:32:49.214Z,-5.04
2022-12-15T18:37:52.669Z,-4.96
2022-12-15T18:42:56.602Z,-4.88
2022-12-15T18:47:59.280Z,-4.85
2022-12-15T18:53:02.796Z,-4.82
2022-12-15T18:58:05.614Z,-4.81
2022-12-15T19:03:08.335Z,-4.79
2022-12-15T19:08:25.753Z,-4.78
2022-12-15T19:13:31.747Z,-4.75
2022-12-15T19:18:53.376Z,-4.73
2022-12-15T19:23:56.777Z,-4.70
2022-12-15T19:28:59.600Z,-4.62
2022-12-15T19:34:02.396Z,-4.55
2022-12-15T19:39:06.937Z,-4.56
2022-12-15T19:44:14.682Z,-4.56
2022-12-15T19:49:17.384Z,-4.54
2022-12-15T19:54:22.575Z,-4.53
2022-12-15T19:59:26.850Z,-4.51
2022-12-15T20:04:32.213Z,-4.50
2022-12-15T20:09:34.933Z,-4.48
2022-12-15T20:14:37.808Z,-4.44
2022-12-15T20:19:40.788Z,-4.42
2022-12-15T20:24:45.552Z,-4.41
2022-12-15T20:29:48.306Z,-4.41
2022-12-15T20:34:51.064Z,-4.42
2022-12-15T20:39:57.421Z,-4.46
2022-12-15T20:45:00.706Z,-4.48
2022-12-15T20:50:03.718Z,-4.51
2022-12-15T20:55:10.028Z,-4.50
2022-12-15T21:00:14.160Z,-4.46
2022-12-15T21:05:19.956Z,-4.46
2022-12-15T21:10:22.675Z,-4.41
2022-12-15T21:15:25.354Z,-4.39
2022-12-15T21:20:28.052Z,-4.40
2022-12-15T21:25:30.854Z,-4.37
2022-12-15T21:30:35.215Z,-4.36
2022-12-15T21:35:40.469Z,-4.40
2022-12-15T21:40:43.176Z,-4.41
2022-12-15T21:45:45.980Z,-4.37
2022-12-15T21:50:48.726Z,-4.37
2022-12-15T21:55:51.552Z,-4.36
2022-12-15T22:00:54.354Z,-4.34
2022-12-15T22:05:57.260Z,-4.37
2022-12-15T22:11:00.070Z,-4.38
2022-12-15T22:16:02.864Z,-4.37
2022-12-15T22:21:07.804Z,-4.40
2022-12-15T22:26:21.193Z,-4.44
2022-12-15T22:31:23.992Z,-4.46
2022-12-15T22:36:26.874Z,-4.50
2022-12-15T22:41:29.769Z,-4.51
2022-12-15T22:46:32.727Z,-4.52
2022-12-15T22:51:35.578Z,-4.57
2022-12-15T22:56:39.921Z,-4.59
2022-12-15T23:01:42.761Z,-4.59
2022-12-15T23:06:45.606Z,-4.62
2022-12-15T23:11:48.528Z,-4.63
2022-12-15T23:16:51.228Z,-4.61
2022-12-15T23:21:54.024Z,-4.58
2022-12-15T23:26:56.836Z,-4.58
2022-12-15T23:31:59.572Z,-4.58
2022-12-15T23:37:02.545Z,-4.57
2022-12-15T23:42:06.049Z,-4.61
2022-12-15T23:47:08.793Z,-4.68
2022-12-15T23:52:11.939Z,-4.68
2022-12-15T23:57:14.761Z,-4.65
